Time;durP1;ratioP1;P1;durP2;ratioP2;P2;SDS_P1;SDS_P2;PMS_P1;PMS_P2;Temp;Humidity;BMP_temperature;BMP_pressure;BME280_temperature;BME280_humidity;BME280_pressure;Samples;Min_cycle;Max_cycle;Signal;HPM_P1;HPM_P2
2021/04/09 00:01:11;;;;;;;5.07;2.80;;;;;;;;;;5072942;28;20035;-64
2021/04/09 00:03:36;;;;;;;10.90;4.25;;;;;;;;;;5074565;28;20147;-64
2021/04/09 00:06:01;;;;;;;8.80;3.05;;;;;;;;;;5079685;28;20032;-65
2021/04/09 00:08:27;;;;;;;5.85;3.00;;;;;;;;;;5073828;28;20024;-64
2021/04/09 00:10:52;;;;;;;3.38;1.50;;;;;;;;;;5074427;28;20059;-64
2021/04/09 00:13:17;;;;;;;8.73;4.80;;;;;;;;;;5071150;28;20034;-64
2021/04/09 00:15:43;;;;;;;10.10;4.50;;;;;;;;;;5072386;28;20052;-64
2021/04/09 00:18:08;;;;;;;7.05;4.40;;;;;;;;;;5071561;28;20029;-64
2021/04/09 00:20:33;;;;;;;23.55;6.65;;;;;;;;;;5076500;28;20168;-64
2021/04/09 00:22:59;;;;;;;11.68;7.65;;;;;;;;;;5072483;28;20020;-64
2021/04/09 00:25:24;;;;;;;8.52;3.85;;;;;;;;;;5074808;28;20028;-69
2021/04/09 00:27:49;;;;;;;2.88;1.45;;;;;;;;;;5077445;28;20017;-64
2021/04/09 00:30:17;;;;;;;5.15;2.38;;;;;;;;;;5078024;28;20071;-63
2021/04/09 00:32:44;;;;;;;7.30;3.45;;;;;;;;;;5076553;28;20600;-64
2021/04/09 00:35:09;;;;;;;6.20;1.65;;;;;;;;;;5077281;28;20358;-64
2021/04/09 00:37:35;;;;;;;15.60;1.48;;;;;;;;;;5078364;28;20025;-69
2021/04/09 00:40:00;;;;;;;8.40;3.47;;;;;;;;;;5080686;28;20486;-69
2021/04/09 00:42:25;;;;;;;4.90;2.42;;;;;;;;;;5077369;28;20031;-69
2021/04/09 00:44:54;;;;;;;4.45;1.67;;;;;;;;;;5077455;28;20029;-70
2021/04/09 00:47:20;;;;;;;3.05;1.27;;;;;;;;;;5087511;28;20035;-66
2021/04/09 00:49:45;;;;;;;11.85;8.80;;;;;;;;;;5086380;28;20068;-65
2021/04/09 00:52:10;;;;;;;3.25;2.05;;;;;;;;;;5088322;28;20024;-65
2021/04/09 00:54:36;;;;;;;9.32;2.50;;;;;;;;;;5085192;28;20020;-65
2021/04/09 00:57:02;;;;;;;4.22;1.40;;;;;;;;;;5088468;28;20031;-65
2021/04/09 00:59:28;;;;;;;7.18;4.13;;;;;;;;;;5086053;28;20467;-64
2021/04/09 01:01:54;;;;;;;8.93;2.90;;;;;;;;;;5087511;28;20344;-65
2021/04/09 01:04:19;;;;;;;13.20;5.95;;;;;;;;;;5087040;28;20070;-65
2021/04/09 01:06:44;;;;;;;18.25;5.35;;;;;;;;;;5086385;28;20493;-65
2021/04/09 01:09:10;;;;;;;10.85;5.97;;;;;;;;;;5088151;28;20475;-65
2021/04/09 01:11:35;;;;;;;10.70;7.47;;;;;;;;;;5085377;28;20041;-64
2021/04/09 01:14:00;;;;;;;8.65;1.80;;;;;;;;;;5088018;28;20055;-65
2021/04/09 01:16:26;;;;;;;8.88;5.05;;;;;;;;;;5085922;28;20096;-65
2021/04/09 01:18:58;;;;;;;5.03;2.47;;;;;;;;;;5086914;28;20027;-65
2021/04/09 01:21:37;;;;;;;17.10;2.78;;;;;;;;;;5086071;28;20073;-64
2021/04/09 01:24:05;;;;;;;7.28;3.33;;;;;;;;;;5076393;28;20066;-63
2021/04/09 01:26:36;;;;;;;8.32;2.80;;;;;;;;;;5084889;28;20343;-64
2021/04/09 01:29:07;;;;;;;1.95;1.15;;;;;;;;;;5076894;28;20062;-63
2021/04/09 01:31:45;;;;;;;2.33;1.13;;;;;;;;;;5084471;28;20039;-63
2021/04/09 01:34:11;;;;;;;6.65;1.58;;;;;;;;;;5086956;28;20028;-63
2021/04/09 01:36:39;;;;;;;4.65;0.93;;;;;;;;;;5084171;28;20032;-63
2021/04/09 01:39:08;;;;;;;2.40;1.08;;;;;;;;;;5087049;28;20020;-63
2021/04/09 01:41:36;;;;;;;1.35;0.52;;;;;;;;;;5077925;28;21073;-64
2021/04/09 01:44:02;;;;;;;1.33;0.63;;;;;;;;;;5080909;28;20055;-64
2021/04/09 01:46:29;;;;;;;10.02;0.90;;;;;;;;;;5083296;28;20496;-63
2021/04/09 01:48:54;;;;;;;5.60;0.73;;;;;;;;;;5082966;28;20047;-63
2021/04/09 01:51:20;;;;;;;2.75;1.13;;;;;;;;;;5083383;28;20028;-63
2021/04/09 01:53:46;;;;;;;3.10;1.40;;;;;;;;;;5078629;28;20016;-63
2021/04/09 01:56:12;;;;;;;2.15;0.55;;;;;;;;;;5086478;28;20121;-63
2021/04/09 01:58:39;;;;;;;8.02;0.82;;;;;;;;;;5078666;28;20391;-63
2021/04/09 02:01:08;;;;;;;4.95;0.63;;;;;;;;;;5082049;28;20436;-63
2021/04/09 02:03:34;;;;;;;1.98;1.42;;;;;;;;;;5083218;28;20150;-63
2021/04/09 02:06:00;;;;;;;2.60;1.52;;;;;;;;;;5086686;28;20126;-64
2021/04/09 02:08:25;;;;;;;2.97;1.40;;;;;;;;;;5084679;28;20189;-64
2021/04/09 02:10:55;;;;;;;6.65;0.85;;;;;;;;;;5085351;28;20447;-64
2021/04/09 02:13:20;;;;;;;4.47;1.08;;;;;;;;;;5085586;28;20462;-63
2021/04/09 02:15:46;;;;;;;1.15;0.60;;;;;;;;;;5084348;28;20049;-63
2021/04/09 02:18:11;;;;;;;4.90;1.55;;;;;;;;;;5086090;28;20027;-63
2021/04/09 02:20:37;;;;;;;7.88;1.40;;;;;;;;;;5083470;28;20056;-64
2021/04/09 02:23:02;;;;;;;14.43;1.77;;;;;;;;;;5086401;28;20103;-64
2021/04/09 02:25:27;;;;;;;0.95;0.50;;;;;;;;;;5084034;28;20059;-63
2021/04/09 02:27:53;;;;;;;3.65;1.13;;;;;;;;;;5085477;28;20031;-63
2021/04/09 02:30:21;;;;;;;2.08;1.10;;;;;;;;;;5085528;28;20028;-63
2021/04/09 02:32:46;;;;;;;3.30;1.38;;;;;;;;;;5083684;28;20071;-63
2021/04/09 02:35:12;;;;;;;5.25;1.65;;;;;;;;;;5083246;28;20421;-64
2021/04/09 02:37:42;;;;;;;7.70;1.55;;;;;;;;;;5076777;28;20540;-63
2021/04/09 02:40:12;;;;;;;6.10;1.25;;;;;;;;;;5080244;28;20028;-63
2021/04/09 02:42:38;;;;;;;5.55;1.27;;;;;;;;;;5083226;28;20012;-64
2021/04/09 02:45:04;;;;;;;7.82;2.17;;;;;;;;;;5082874;28;20024;-69
2021/04/09 02:47:30;;;;;;;5.93;1.13;;;;;;;;;;5081953;28;20494;-70
2021/04/09 02:50:07;;;;;;;7.50;1.80;;;;;;;;;;5085276;28;20062;-69
2021/04/09 02:52:34;;;;;;;3.60;1.42;;;;;;;;;;5083030;28;20020;-69
2021/04/09 02:55:07;;;;;;;8.40;1.58;;;;;;;;;;5074611;28;20036;-69
2021/04/09 02:57:33;;;;;;;3.63;1.05;;;;;;;;;;5082707;28;20106;-70
2021/04/09 02:59:59;;;;;;;1.98;1.00;;;;;;;;;;5074582;28;20454;-69
2021/04/09 03:02:25;;;;;;;2.67;1.20;;;;;;;;;;5083933;28;20087;-69
2021/04/09 03:04:51;;;;;;;6.88;2.55;;;;;;;;;;5084114;28;20458;-69
2021/04/09 03:07:16;;;;;;;1.30;0.70;;;;;;;;;;5085157;28;20350;-69
2021/04/09 03:09:41;;;;;;;3.97;1.15;;;;;;;;;;5083112;28;20024;-69
2021/04/09 03:12:13;;;;;;;4.32;2.08;;;;;;;;;;5085647;28;20020;-69
2021/04/09 03:14:38;;;;;;;;;;;;;;;;;;5082848;28;20031;-69
2021/04/09 03:17:07;;;;;;;1.98;1.38;;;;;;;;;;5085215;28;19916;-69
2021/04/09 03:19:32;;;;;;;4.35;1.15;;;;;;;;;;5082441;28;20020;-69
2021/04/09 03:21:57;;;;;;;1.92;0.93;;;;;;;;;;5085424;28;20035;-70
2021/04/09 03:24:22;;;;;;;1.67;0.70;;;;;;;;;;5084040;28;20024;-68
2021/04/09 03:26:48;;;;;;;3.35;1.23;;;;;;;;;;5083964;28;20103;-69
2021/04/09 03:29:13;;;;;;;2.80;1.40;;;;;;;;;;5085629;28;20107;-71
2021/04/09 03:31:38;;;;;;;4.07;1.15;;;;;;;;;;5082995;28;20036;-69
2021/04/09 03:34:04;;;;;;;5.20;1.70;;;;;;;;;;5085160;28;20028;-71
2021/04/09 03:36:29;;;;;;;2.00;1.52;;;;;;;;;;5083443;28;20062;-69
2021/04/09 03:38:54;;;;;;;2.53;1.58;;;;;;;;;;5084709;28;20373;-69
2021/04/09 03:41:20;;;;;;;1.98;0.75;;;;;;;;;;5084975;28;20035;-69
2021/04/09 03:43:45;;;;;;;1.25;0.82;;;;;;;;;;5083975;28;20491;-70
2021/04/09 03:46:10;;;;;;;5.70;1.33;;;;;;;;;;5089242;28;20137;-69
2021/04/09 03:48:35;;;;;;;4.30;1.67;;;;;;;;;;5086122;28;20029;-69
2021/04/09 03:51:02;;;;;;;2.70;1.80;;;;;;;;;;5085323;28;20031;-70
2021/04/09 03:53:27;;;;;;;2.75;1.38;;;;;;;;;;5078359;28;20025;-69
2021/04/09 03:55:52;;;;;;;8.85;1.85;;;;;;;;;;5088379;28;20359;-69
2021/04/09 03:58:17;;;;;;;4.47;1.40;;;;;;;;;;5088070;28;20024;-69
2021/04/09 04:00:43;;;;;;;2.92;1.27;;;;;;;;;;5078235;28;20529;-70
2021/04/09 04:03:09;;;;;;;5.35;2.05;;;;;;;;;;5088613;28;20023;-69
2021/04/09 04:05:34;;;;;;;3.13;1.17;;;;;;;;;;5085632;28;20040;-70
2021/04/09 04:07:59;;;;;;;20.73;3.00;;;;;;;;;;5088564;28;20379;-69
2021/04/09 04:10:24;;;;;;;11.85;2.10;;;;;;;;;;5086647;28;20028;-70
2021/04/09 04:12:50;;;;;;;3.22;1.33;;;;;;;;;;5087337;28;20086;-69
2021/04/09 04:15:15;;;;;;;4.72;1.15;;;;;;;;;;5088044;28;20020;-69
2021/04/09 04:17:40;;;;;;;2.85;1.17;;;;;;;;;;5085908;28;20025;-70
2021/04/09 04:20:06;;;;;;;1.60;1.02;;;;;;;;;;5088631;28;20602;-69
2021/04/09 04:22:31;;;;;;;11.30;1.67;;;;;;;;;;5084536;28;20020;-70
2021/04/09 04:24:57;;;;;;;4.82;1.92;;;;;;;;;;5080427;28;20098;-63
2021/04/09 04:27:22;;;;;;;3.70;1.35;;;;;;;;;;5079190;28;20059;-63
2021/04/09 04:29:47;;;;;;;2.80;1.52;;;;;;;;;;5087012;28;20029;-64
2021/04/09 04:32:13;;;;;;;5.32;1.73;;;;;;;;;;5084721;28;20020;-64
2021/04/09 04:34:38;;;;;;;2.38;0.95;;;;;;;;;;5072925;28;20034;-63
2021/04/09 04:37:03;;;;;;;3.10;1.40;;;;;;;;;;5075495;28;20028;-62
2021/04/09 04:39:29;;;;;;;5.55;1.83;;;;;;;;;;5075627;28;20024;-62
2021/04/09 04:41:54;;;;;;;4.85;1.67;;;;;;;;;;5075756;28;20031;-62
2021/04/09 04:44:19;;;;;;;5.82;1.42;;;;;;;;;;5073879;28;20115;-63
2021/04/09 04:46:45;;;;;;;3.38;1.85;;;;;;;;;;5073960;28;20387;-62
2021/04/09 04:49:10;;;;;;;4.38;2.13;;;;;;;;;;5075044;28;20035;-62
2021/04/09 04:51:36;;;;;;;5.88;1.95;;;;;;;;;;5070653;28;20060;-62
2021/04/09 04:54:01;;;;;;;10.68;2.33;;;;;;;;;;5076777;28;20470;-62
2021/04/09 04:56:26;;;;;;;13.80;2.05;;;;;;;;;;5071774;28;20036;-68
2021/04/09 04:58:51;;;;;;;1.70;1.27;;;;;;;;;;5078428;28;20040;-68
2021/04/09 05:01:17;;;;;;;3.60;1.95;;;;;;;;;;5076782;28;20032;-68
2021/04/09 05:03:42;;;;;;;8.85;1.83;;;;;;;;;;5077206;28;20035;-69
2021/04/09 05:06:08;;;;;;;11.18;3.55;;;;;;;;;;5076805;28;20028;-68
2021/04/09 05:08:33;;;;;;;1.75;1.02;;;;;;;;;;5075940;28;20023;-68
2021/04/09 05:10:58;;;;;;;11.10;2.05;;;;;;;;;;5078180;28;20032;-68
2021/04/09 05:13:24;;;;;;;3.20;2.20;;;;;;;;;;5076067;28;20385;-68
2021/04/09 05:15:49;;;;;;;6.03;1.45;;;;;;;;;;5077536;28;20064;-68
2021/04/09 05:18:14;;;;;;;4.95;2.40;;;;;;;;;;5075914;28;20131;-68
2021/04/09 05:20:40;;;;;;;12.45;5.53;;;;;;;;;;5076724;28;20035;-68
2021/04/09 05:23:05;;;;;;;7.78;4.50;;;;;;;;;;5076622;28;20451;-68
2021/04/09 05:25:30;;;;;;;4.25;2.55;;;;;;;;;;5075787;28;20100;-68
2021/04/09 05:27:55;;;;;;;4.28;2.42;;;;;;;;;;5077587;28;20569;-68
2021/04/09 05:30:21;;;;;;;6.63;1.90;;;;;;;;;;5075171;28;20090;-68
2021/04/09 05:32:47;;;;;;;3.55;1.48;;;;;;;;;;5071500;28;20048;-68
2021/04/09 05:35:13;;;;;;;2.97;1.63;;;;;;;;;;5072521;28;20505;-68
2021/04/09 05:37:38;;;;;;;5.32;2.95;;;;;;;;;;5072120;28;20043;-62
2021/04/09 05:40:04;;;;;;;2.47;1.30;;;;;;;;;;5073482;28;20493;-62
2021/04/09 05:42:32;;;;;;;5.53;1.85;;;;;;;;;;5074980;28;20028;-63
2021/04/09 05:44:58;;;;;;;20.35;11.32;;;;;;;;;;5076850;28;20031;-63
2021/04/09 05:47:24;;;;;;;31.45;15.00;;;;;;;;;;5076103;28;20016;-62
2021/04/09 05:49:51;;;;;;;6.82;4.47;;;;;;;;;;5076926;28;20040;-63
2021/04/09 05:52:16;;;;;;;5.45;2.22;;;;;;;;;;5073567;28;20091;-68
2021/04/09 05:54:42;;;;;;;7.60;3.40;;;;;;;;;;5074837;28;20448;-68
2021/04/09 05:57:07;;;;;;;10.73;4.78;;;;;;;;;;5074054;28;20558;-63
2021/04/09 05:59:33;;;;;;;6.68;3.70;;;;;;;;;;5075605;28;20012;-70
2021/04/09 06:01:58;;;;;;;23.85;10.48;;;;;;;;;;5080146;28;20012;-62
2021/04/09 06:04:23;;;;;;;21.55;9.68;;;;;;;;;;5075486;28;20041;-70
2021/04/09 06:06:49;;;;;;;9.30;3.95;;;;;;;;;;5066232;28;20052;-62
2021/04/09 06:09:14;;;;;;;5.57;3.20;;;;;;;;;;5069610;28;20032;-63
2021/04/09 06:11:39;;;;;;;8.38;3.83;;;;;;;;;;5071219;28;20505;-64
2021/04/09 06:14:05;;;;;;;7.28;4.57;;;;;;;;;;5070792;28;20757;-63
2021/04/09 06:16:30;;;;;;;6.45;5.63;;;;;;;;;;5073512;28;20555;-70
2021/04/09 06:18:56;;;;;;;6.18;3.72;;;;;;;;;;5070836;28;20024;-69
2021/04/09 06:21:21;;;;;;;8.40;4.70;;;;;;;;;;5074947;28;20095;-63
2021/04/09 06:23:46;;;;;;;7.22;3.60;;;;;;;;;;5070615;28;20020;-64
2021/04/09 06:26:12;;;;;;;17.83;3.90;;;;;;;;;;5070144;28;20015;-63
2021/04/09 06:28:37;;;;;;;3.50;1.75;;;;;;;;;;5070499;28;20013;-64
2021/04/09 06:31:02;;;;;;;7.25;3.90;;;;;;;;;;5071175;28;20459;-64
2021/04/09 06:33:28;;;;;;;6.10;2.25;;;;;;;;;;5073694;28;20023;-64
2021/04/09 06:35:53;;;;;;;7.63;3.03;;;;;;;;;;5067925;28;20383;-64
2021/04/09 06:38:18;;;;;;;58.25;19.90;;;;;;;;;;5068561;28;20024;-64
2021/04/09 06:40:44;;;;;;;34.72;23.92;;;;;;;;;;5071479;28;20465;-63
2021/04/09 06:43:09;;;;;;;29.38;22.27;;;;;;;;;;5071213;28;20020;-70
2021/04/09 06:45:35;;;;;;;30.23;17.88;;;;;;;;;;5071679;28;20391;-63
2021/04/09 06:48:01;;;;;;;16.27;10.45;;;;;;;;;;5070655;28;20019;-62
2021/04/09 06:50:26;;;;;;;16.08;10.63;;;;;;;;;;5071631;28;20028;-63
2021/04/09 06:52:54;;;;;;;24.60;16.08;;;;;;;;;;5070078;28;20077;-62
2021/04/09 06:55:21;;;;;;;18.67;10.55;;;;;;;;;;5069651;28;20093;-63
2021/04/09 06:57:47;;;;;;;19.77;9.30;;;;;;;;;;5070046;28;20027;-63
2021/04/09 07:00:13;;;;;;;25.52;16.48;;;;;;;;;;5070451;28;20020;-63
2021/04/09 07:02:41;;;;;;;20.40;13.90;;;;;;;;;;5070403;28;20063;-63
2021/04/09 07:05:06;;;;;;;14.48;10.68;;;;;;;;;;5070611;28;20058;-63
2021/04/09 07:07:32;;;;;;;10.60;6.88;;;;;;;;;;5071377;28;20033;-62
2021/04/09 07:09:57;;;;;;;10.15;6.32;;;;;;;;;;5067621;28;20033;-62
2021/04/09 07:12:27;;;;;;;87.47;18.83;;;;;;;;;;5071490;28;20012;-62
2021/04/09 07:14:52;;;;;;;29.85;10.52;;;;;;;;;;5071578;28;20078;-62
2021/04/09 07:17:24;;;;;;;17.15;7.68;;;;;;;;;;5071060;28;20710;-62
2021/04/09 07:19:50;;;;;;;9.13;6.55;;;;;;;;;;5074005;28;20613;-62
2021/04/09 07:22:16;;;;;;;15.57;8.52;;;;;;;;;;5075382;28;20023;-62
2021/04/09 07:24:41;;;;;;;9.75;7.82;;;;;;;;;;5075388;28;20037;-62
2021/04/09 07:27:06;;;;;;;10.07;6.10;;;;;;;;;;5075125;28;20412;-62
2021/04/09 07:29:32;;;;;;;8.93;5.22;;;;;;;;;;5075209;28;20017;-62
2021/04/09 07:31:57;;;;;;;9.95;4.18;;;;;;;;;;5075485;28;20138;-62
2021/04/09 07:34:23;;;;;;;10.48;5.63;;;;;;;;;;5074077;28;20096;-62
2021/04/09 07:37:06;;;;;;;39.83;7.82;;;;;;;;;;5075195;28;20021;-62
2021/04/09 07:39:32;;;;;;;17.98;8.32;;;;;;;;;;5074983;28;20025;-62
2021/04/09 07:42:07;;;;;;;14.95;8.27;;;;;;;;;;5075329;28;20017;-62
2021/04/09 07:44:32;;;;;;;10.20;7.78;;;;;;;;;;5074911;28;20033;-62
2021/04/09 07:47:10;;;;;;;18.05;8.85;;;;;;;;;;5074976;28;20043;-62
2021/04/09 07:49:36;;;;;;;13.20;9.32;;;;;;;;;;5075183;28;20021;-62
2021/04/09 07:52:11;;;;;;;17.60;12.63;;;;;;;;;;5074806;28;20135;-62
2021/04/09 07:54:37;;;;;;;9.55;5.47;;;;;;;;;;5073725;28;20020;-62
2021/04/09 07:57:03;;;;;;;6.85;3.45;;;;;;;;;;5074650;28;20028;-63
2021/04/09 07:59:54;;;;;;;8.13;4.25;;;;;;;;;;5074635;28;20081;-63
2021/04/09 08:02:19;;;;;;;;;;;;;;;;;;5068324;28;20585;-62
2021/04/09 08:04:45;;;;;;;8.85;2.38;;;;;;;;;;5074402;28;19915;-62
2021/04/09 08:07:30;;;;;;;6.80;2.85;;;;;;;;;;5074649;28;20455;-62
2021/04/09 08:09:55;;;;;;;10.57;3.63;;;;;;;;;;5074798;28;20032;-62
2021/04/09 08:12:31;;;;;;;14.23;4.13;;;;;;;;;;5074389;28;20032;-63
2021/04/09 08:14:57;;;;;;;6.22;1.70;;;;;;;;;;5073566;28;20047;-63
2021/04/09 08:17:24;;;;;;;9.13;2.50;;;;;;;;;;5073814;28;20047;-62
2021/04/09 08:19:53;;;;;;;8.93;5.00;;;;;;;;;;5074465;28;20727;-62
2021/04/09 08:22:20;;;;;;;7.10;3.13;;;;;;;;;;5074073;28;20016;-63
2021/04/09 08:24:46;;;;;;;6.38;3.80;;;;;;;;;;5074370;28;20025;-62
2021/04/09 08:27:12;;;;;;;6.97;3.28;;;;;;;;;;5074144;28;20901;-64
2021/04/09 08:29:38;;;;;;;13.82;2.75;;;;;;;;;;5073709;28;20017;-63
2021/04/09 08:32:04;;;;;;;15.27;6.47;;;;;;;;;;5071854;28;20039;-62
2021/04/09 08:34:30;;;;;;;17.60;5.63;;;;;;;;;;5074020;28;20044;-63
2021/04/09 08:36:55;;;;;;;5.60;1.90;;;;;;;;;;5074467;28;20549;-64
2021/04/09 08:39:20;;;;;;;12.40;3.42;;;;;;;;;;5074621;28;20020;-63
2021/04/09 08:41:48;;;;;;;5.07;2.30;;;;;;;;;;5075144;28;20112;-64
2021/04/09 08:44:14;;;;;;;19.02;3.38;;;;;;;;;;5074409;28;20376;-64
2021/04/09 08:46:39;;;;;;;11.82;1.83;;;;;;;;;;5075058;28;20032;-64
2021/04/09 08:49:05;;;;;;;7.88;6.47;;;;;;;;;;5074289;28;20025;-64
2021/04/09 08:51:31;;;;;;;9.57;3.40;;;;;;;;;;5074493;28;20028;-64
2021/04/09 08:54:17;;;;;;;6.72;3.03;;;;;;;;;;5074187;28;20082;-64
2021/04/09 08:56:42;;;;;;;8.52;2.30;;;;;;;;;;5074555;28;20172;-65
2021/04/09 08:59:07;;;;;;;7.90;2.97;;;;;;;;;;5073690;28;20487;-65
2021/04/09 09:01:34;;;;;;;9.85;6.00;;;;;;;;;;5074406;28;20056;-65
2021/04/09 09:04:18;;;;;;;28.05;14.15;;;;;;;;;;5073526;28;20025;-63
2021/04/09 09:06:43;;;;;;;18.65;10.82;;;;;;;;;;5073990;28;20029;-64
2021/04/09 09:09:09;;;;;;;15.45;9.20;;;;;;;;;;5074113;28;20044;-63
2021/04/09 09:11:53;;;;;;;16.42;5.25;;;;;;;;;;5075293;28;20036;-66
2021/04/09 09:14:33;;;;;;;18.02;6.00;;;;;;;;;;5073857;28;20483;-65
2021/04/09 09:17:18;;;;;;;13.82;5.93;;;;;;;;;;5073037;28;20056;-64
2021/04/09 09:19:45;;;;;;;8.60;4.93;;;;;;;;;;5073913;28;20033;-65
2021/04/09 09:22:11;;;;;;;18.67;8.05;;;;;;;;;;5073639;28;20043;-64
2021/04/09 09:24:58;;;;;;;16.17;7.65;;;;;;;;;;5073835;28;20016;-64
2021/04/09 09:27:43;;;;;;;18.90;14.30;;;;;;;;;;5062694;28;20060;-64
2021/04/09 09:30:28;;;;;;;31.13;15.35;;;;;;;;;;5073706;28;20115;-64
2021/04/09 09:33:12;;;;;;;32.20;20.80;;;;;;;;;;5073856;28;20110;-64
2021/04/09 09:35:53;;;;;;;42.08;14.77;;;;;;;;;;5073899;28;20475;-65
2021/04/09 09:38:37;;;;;;;28.52;8.05;;;;;;;;;;5072958;28;20021;-64
2021/04/09 09:41:02;;;;;;;8.30;3.75;;;;;;;;;;5073555;28;20032;-64
2021/04/09 09:43:31;;;;;;;11.23;4.80;;;;;;;;;;5072810;28;20143;-64
2021/04/09 09:45:57;;;;;;;4.00;2.03;;;;;;;;;;5073481;28;20025;-64
2021/04/09 09:48:22;;;;;;;6.78;3.10;;;;;;;;;;5073049;28;20086;-64
2021/04/09 09:50:47;;;;;;;2.50;1.85;;;;;;;;;;5067790;28;20028;-65
2021/04/09 09:53:13;;;;;;;23.23;3.83;;;;;;;;;;5066063;28;20040;-64
2021/04/09 09:55:40;;;;;;;11.65;3.22;;;;;;;;;;5071832;28;20020;-63
2021/04/09 09:58:18;;;;;;;13.55;4.93;;;;;;;;;;5071893;28;20039;-63
2021/04/09 10:01:13;;;;;;;12.20;5.03;;;;;;;;;;5071555;28;20119;-64
2021/04/09 10:03:39;;;;;;;10.60;5.57;;;;;;;;;;5058134;28;20435;-64
2021/04/09 10:06:08;;;;;;;16.00;8.40;;;;;;;;;;5070280;28;20025;-65
2021/04/09 10:08:34;;;;;;;11.30;8.38;;;;;;;;;;5068487;28;20621;-66
2021/04/09 10:11:01;;;;;;;10.68;6.93;;;;;;;;;;5068763;28;20024;-63
2021/04/09 10:13:28;;;;;;;5.88;3.92;;;;;;;;;;5067948;28;20032;-63
2021/04/09 10:16:13;;;;;;;4.35;3.13;;;;;;;;;;5068519;28;20536;-63
2021/04/09 10:18:43;;;;;;;5.22;4.15;;;;;;;;;;5067980;28;20033;-63
2021/04/09 10:21:13;;;;;;;7.15;5.45;;;;;;;;;;5068710;28;20078;-64
2021/04/09 10:23:39;;;;;;;8.27;6.30;;;;;;;;;;5070163;28;20016;-64
2021/04/09 10:26:04;;;;;;;10.90;6.13;;;;;;;;;;5070093;28;20035;-64
2021/04/09 10:28:44;;;;;;;11.60;5.28;;;;;;;;;;5068323;28;20409;-64
2021/04/09 10:31:10;;;;;;;14.68;6.20;;;;;;;;;;5064790;28;20044;-63
2021/04/09 10:33:42;;;;;;;18.23;8.32;;;;;;;;;;5069516;28;20074;-63
2021/04/09 10:36:15;;;;;;;28.30;16.27;;;;;;;;;;5069962;28;20028;-64
2021/04/09 10:38:40;;;;;;;14.07;9.68;;;;;;;;;;5069385;28;20060;-64
2021/04/09 10:41:05;;;;;;;11.05;8.65;;;;;;;;;;5069206;28;20143;-64
2021/04/09 10:43:31;;;;;;;12.85;6.70;;;;;;;;;;5067903;28;20025;-63
2021/04/09 10:46:07;;;;;;;10.65;5.65;;;;;;;;;;5069569;28;20024;-64
2021/04/09 10:48:33;;;;;;;17.65;4.25;;;;;;;;;;5068720;28;20024;-63
2021/04/09 10:50:58;;;;;;;9.00;5.47;;;;;;;;;;5069606;28;20467;-64
2021/04/09 10:53:24;;;;;;;17.95;7.13;;;;;;;;;;5068927;28;20059;-63
2021/04/09 10:55:49;;;;;;;19.35;8.25;;;;;;;;;;5069856;28;20111;-63
2021/04/09 10:58:15;;;;;;;18.63;12.02;;;;;;;;;;5069277;28;20044;-65
2021/04/09 11:00:41;;;;;;;18.67;10.80;;;;;;;;;;5067617;28;20097;-64
2021/04/09 11:03:06;;;;;;;11.13;7.10;;;;;;;;;;5069061;28;20020;-65
2021/04/09 11:05:32;;;;;;;14.63;7.75;;;;;;;;;;5069545;28;20050;-64
2021/04/09 11:07:58;;;;;;;10.38;6.95;;;;;;;;;;5068942;28;20780;-64
2021/04/09 11:10:33;;;;;;;10.73;5.93;;;;;;;;;;5068701;28;20751;-64
2021/04/09 11:12:58;;;;;;;17.98;9.93;;;;;;;;;;5067060;28;20417;-64
2021/04/09 11:15:24;;;;;;;13.65;9.07;;;;;;;;;;5069001;28;20048;-64
2021/04/09 11:17:52;;;;;;;14.57;8.50;;;;;;;;;;5069715;28;20056;-65
2021/04/09 11:20:20;;;;;;;13.63;7.30;;;;;;;;;;5067576;28;20045;-64
2021/04/09 11:22:46;;;;;;;12.70;8.65;;;;;;;;;;5066253;28;20023;-64
2021/04/09 11:25:11;;;;;;;11.30;8.57;;;;;;;;;;5067586;28;20409;-64
2021/04/09 11:27:41;;;;;;;13.35;7.93;;;;;;;;;;5067430;28;20027;-63
2021/04/09 11:30:13;;;;;;;14.32;6.45;;;;;;;;;;5068683;28;20039;-65
2021/04/09 11:32:43;;;;;;;10.13;6.07;;;;;;;;;;5068952;28;20052;-63
2021/04/09 11:35:09;;;;;;;14.52;6.07;;;;;;;;;;5068701;28;20076;-63
2021/04/09 11:37:41;;;;;;;11.48;7.20;;;;;;;;;;5072911;28;20039;-63
2021/04/09 11:40:08;;;;;;;8.27;6.72;;;;;;;;;;5066941;28;20033;-62
2021/04/09 11:42:34;;;;;;;12.35;5.32;;;;;;;;;;5069076;28;20048;-62
2021/04/09 11:45:00;;;;;;;6.57;5.47;;;;;;;;;;5068576;28;20073;-63
2021/04/09 11:47:28;;;;;;;16.95;7.97;;;;;;;;;;5066757;28;20016;-63
2021/04/09 11:49:59;;;;;;;8.25;6.07;;;;;;;;;;5068495;28;20038;-63
2021/04/09 11:52:25;;;;;;;11.90;7.90;;;;;;;;;;5067645;28;20028;-64
2021/04/09 11:54:50;;;;;;;8.23;6.90;;;;;;;;;;5066479;28;20041;-63
2021/04/09 11:57:19;;;;;;;11.93;8.02;;;;;;;;;;5067390;28;20074;-62
2021/04/09 11:59:45;;;;;;;16.15;6.10;;;;;;;;;;5068457;28;20029;-64
2021/04/09 12:02:16;;;;;;;10.10;6.75;;;;;;;;;;5068951;28;20013;-64
2021/04/09 12:04:41;;;;;;;;;;;;;;;;;;5067762;28;20043;-63
2021/04/09 12:07:36;;;;;;;13.75;7.25;;;;;;;;;;5071182;28;19908;-63
2021/04/09 12:10:02;;;;;;;12.20;6.85;;;;;;;;;;5065963;28;20463;-63
2021/04/09 12:12:27;;;;;;;15.50;7.45;;;;;;;;;;5072129;28;20066;-63
2021/04/09 12:14:54;;;;;;;8.05;4.90;;;;;;;;;;5072441;28;20158;-63
2021/04/09 12:17:21;;;;;;;22.38;9.38;;;;;;;;;;5071445;28;20041;-63
2021/04/09 12:19:47;;;;;;;18.73;7.43;;;;;;;;;;5071410;28;20040;-63
2021/04/09 12:22:13;;;;;;;5.88;5.25;;;;;;;;;;5071677;28;20395;-64
2021/04/09 12:24:39;;;;;;;8.13;4.90;;;;;;;;;;5070216;28;20017;-64
2021/04/09 12:27:04;;;;;;;14.20;7.50;;;;;;;;;;5070727;28;20028;-63
2021/04/09 12:29:30;;;;;;;19.73;8.02;;;;;;;;;;5070172;28;20038;-63
2021/04/09 12:31:55;;;;;;;7.82;5.50;;;;;;;;;;5070829;28;20081;-63
2021/04/09 12:34:21;;;;;;;9.00;7.50;;;;;;;;;;5069774;28;20024;-63
2021/04/09 12:36:47;;;;;;;11.27;7.32;;;;;;;;;;5070058;28;20033;-63
2021/04/09 12:39:13;;;;;;;6.80;5.03;;;;;;;;;;5068667;28;20100;-63
2021/04/09 12:41:38;;;;;;;4.60;3.25;;;;;;;;;;5072024;28;20603;-63
2021/04/09 12:44:05;;;;;;;7.63;4.28;;;;;;;;;;5071392;28;20123;-63
2021/04/09 12:46:30;;;;;;;7.45;4.25;;;;;;;;;;5071413;28;20025;-63
2021/04/09 12:48:55;;;;;;;9.20;3.65;;;;;;;;;;5071503;28;20166;-63
2021/04/09 12:51:21;;;;;;;11.27;3.72;;;;;;;;;;5070856;28;20037;-63
2021/04/09 12:53:47;;;;;;;8.50;3.92;;;;;;;;;;5070507;28;20025;-63
2021/04/09 12:56:17;;;;;;;4.82;3.17;;;;;;;;;;5070153;28;20081;-63
2021/04/09 12:58:43;;;;;;;12.13;8.00;;;;;;;;;;5070485;28;20104;-63
2021/04/09 13:01:08;;;;;;;9.48;6.05;;;;;;;;;;5070221;28;20364;-63
2021/04/09 13:03:33;;;;;;;8.30;3.67;;;;;;;;;;5070430;28;20027;-63
2021/04/09 13:05:59;;;;;;;6.65;2.70;;;;;;;;;;5070027;28;20432;-65
2021/04/09 13:08:25;;;;;;;12.50;4.10;;;;;;;;;;5070454;28;20479;-63
2021/04/09 13:10:50;;;;;;;6.28;2.20;;;;;;;;;;5071273;28;20469;-63
2021/04/09 13:13:15;;;;;;;12.15;2.70;;;;;;;;;;5071535;28;20528;-63
2021/04/09 13:15:41;;;;;;;6.18;2.00;;;;;;;;;;5069765;28;20059;-63
2021/04/09 13:18:06;;;;;;;11.68;2.78;;;;;;;;;;5070658;28;20063;-63
2021/04/09 13:20:31;;;;;;;4.85;2.05;;;;;;;;;;5070580;28;20112;-64
2021/04/09 13:22:57;;;;;;;9.02;4.28;;;;;;;;;;5067934;28;20081;-64
2021/04/09 13:25:22;;;;;;;5.25;3.30;;;;;;;;;;5070963;28;20059;-63
2021/04/09 13:27:47;;;;;;;10.25;4.32;;;;;;;;;;5070758;28;20020;-63
2021/04/09 13:30:13;;;;;;;6.55;3.53;;;;;;;;;;5070626;28;20032;-64
2021/04/09 13:32:38;;;;;;;15.23;4.63;;;;;;;;;;5071663;28;20020;-64
2021/04/09 13:35:04;;;;;;;4.18;2.80;;;;;;;;;;5070425;28;20404;-64
2021/04/09 13:37:30;;;;;;;4.80;2.35;;;;;;;;;;5069347;28;20043;-64
2021/04/09 13:39:55;;;;;;;5.45;2.33;;;;;;;;;;5071043;28;20474;-64
2021/04/09 13:42:20;;;;;;;8.35;3.05;;;;;;;;;;5071013;28;20101;-64
2021/04/09 13:44:45;;;;;;;16.35;4.75;;;;;;;;;;5071096;28;20040;-63
2021/04/09 13:47:11;;;;;;;11.18;4.50;;;;;;;;;;5070901;28;20094;-66
2021/04/09 13:49:36;;;;;;;3.42;2.65;;;;;;;;;;5070383;28;20036;-65
2021/04/09 13:52:01;;;;;;;9.57;3.08;;;;;;;;;;5069955;28;20423;-64
2021/04/09 13:54:27;;;;;;;8.50;2.90;;;;;;;;;;5069892;28;20020;-64
2021/04/09 13:56:52;;;;;;;3.97;1.38;;;;;;;;;;5069490;28;20032;-65
2021/04/09 13:59:18;;;;;;;3.83;2.05;;;;;;;;;;5069400;28;20093;-64
2021/04/09 14:01:43;;;;;;;4.18;2.05;;;;;;;;;;5070463;28;20071;-64
2021/04/09 14:04:08;;;;;;;5.43;3.40;;;;;;;;;;5070237;28;20055;-64
2021/04/09 14:06:34;;;;;;;5.00;3.15;;;;;;;;;;5071017;28;20052;-64
2021/04/09 14:08:59;;;;;;;12.07;3.50;;;;;;;;;;5070934;28;20035;-65
2021/04/09 14:11:24;;;;;;;12.93;2.60;;;;;;;;;;5068958;28;20033;-65
2021/04/09 14:13:50;;;;;;;49.80;9.45;;;;;;;;;;5069725;28;20980;-64
2021/04/09 14:16:15;;;;;;;14.73;3.72;;;;;;;;;;5069880;28;20069;-64
2021/04/09 14:18:40;;;;;;;5.57;2.25;;;;;;;;;;5070568;28;20024;-64
2021/04/09 14:21:06;;;;;;;6.68;3.80;;;;;;;;;;5070903;28;20073;-64
2021/04/09 14:23:31;;;;;;;6.55;3.22;;;;;;;;;;5070986;28;20058;-64
2021/04/09 14:25:57;;;;;;;3.13;1.80;;;;;;;;;;5070690;28;20036;-65
2021/04/09 14:28:22;;;;;;;2.75;1.83;;;;;;;;;;5070680;28;20024;-64
2021/04/09 14:30:48;;;;;;;6.88;3.90;;;;;;;;;;5071261;28;20039;-65
2021/04/09 14:33:13;;;;;;;13.73;3.58;;;;;;;;;;5066633;28;20069;-64
2021/04/09 14:35:38;;;;;;;7.22;3.53;;;;;;;;;;5070096;28;20028;-65
2021/04/09 14:38:04;;;;;;;14.45;2.33;;;;;;;;;;5069957;28;20025;-65